createdAt,value
2023-01-11T00:01:32.167Z,5.60
2023-01-11T00:04:23.247Z,5.60
2023-01-11T00:06:50.944Z,5.60
2023-01-11T00:09:18.702Z,5.60
2023-01-11T00:11:46.374Z,5.60
2023-01-11T00:14:15.079Z,5.70
2023-01-11T00:16:42.748Z,5.70
2023-01-11T00:19:10.420Z,5.70
2023-01-11T00:21:39.404Z,5.60
2023-01-11T00:24:07.286Z,5.60
2023-01-11T00:26:34.943Z,5.60
2023-01-11T00:29:02.590Z,5.70
2023-01-11T00:31:30.245Z,5.70
2023-01-11T00:33:58.031Z,5.70
2023-01-11T00:36:25.713Z,5.70
2023-01-11T00:38:55.420Z,5.70
2023-01-11T00:41:41.325Z,5.70
2023-01-11T00:44:27.970Z,5.80
2023-01-11T00:47:13.136Z,5.80
2023-01-11T00:49:40.780Z,5.80
2023-01-11T00:52:09.974Z,5.80
2023-01-11T00:54:39.976Z,5.80
2023-01-11T00:57:08.056Z,5.90
2023-01-11T00:59:35.738Z,5.90
2023-01-11T01:02:03.575Z,5.90
2023-01-11T01:04:37.323Z,5.90
2023-01-11T01:07:05.044Z,6.00
2023-01-11T01:09:32.832Z,5.90
2023-01-11T01:12:02.782Z,6.00
2023-01-11T01:14:30.052Z,6.00
2023-01-11T01:16:58.889Z,5.90
2023-01-11T01:19:27.930Z,5.90
2023-01-11T01:21:56.374Z,5.90
2023-01-11T01:24:24.125Z,5.90
2023-01-11T01:26:51.786Z,5.90
2023-01-11T01:29:20.857Z,6.00
2023-01-11T01:31:48.568Z,6.00
2023-01-11T01:34:16.284Z,6.00
2023-01-11T01:36:43.953Z,6.00
2023-01-11T01:39:12.141Z,6.00
2023-01-11T01:41:40.194Z,6.00
2023-01-11T01:44:22.873Z,6.00
2023-01-11T01:46:51.936Z,6.00
2023-01-11T01:49:19.584Z,6.00
2023-01-11T01:51:49.048Z,6.00
2023-01-11T01:54:18.036Z,6.00
2023-01-11T01:56:47.925Z,6.10
2023-01-11T01:59:16.729Z,6.10
2023-01-11T02:01:50.518Z,6.10
2023-01-11T02:04:22.816Z,6.10
2023-01-11T02:06:51.367Z,6.10
2023-01-11T02:09:21.895Z,6.20
2023-01-11T02:11:50.424Z,6.20
2023-01-11T02:14:19.796Z,6.20
2023-01-11T02:16:47.514Z,6.20
2023-01-11T02:19:21.955Z,6.20
2023-01-11T02:21:57.131Z,6.20
2023-01-11T02:24:42.469Z,6.20
2023-01-11T02:27:17.227Z,6.20
2023-01-11T02:29:50.683Z,6.20
2023-01-11T02:32:24.614Z,6.20
2023-01-11T02:34:58.385Z,6.20
2023-01-11T02:37:29.982Z,6.20
2023-01-11T02:40:04.028Z,6.20
2023-01-11T02:42:52.733Z,6.20
2023-01-11T02:45:28.908Z,6.30
2023-01-11T02:47:59.062Z,6.30
2023-01-11T02:50:30.721Z,6.30
2023-01-11T02:53:01.036Z,6.20
2023-01-11T02:55:31.362Z,6.20
2023-01-11T02:58:01.778Z,6.20
2023-01-11T03:00:31.158Z,6.30
2023-01-11T03:03:16.572Z,6.30
2023-01-11T03:05:46.668Z,6.30
2023-01-11T03:08:18.888Z,6.40
2023-01-11T03:10:50.887Z,6.30
2023-01-11T03:13:25.182Z,6.40
2023-01-11T03:16:08.508Z,6.40
2023-01-11T03:18:43.468Z,6.40
2023-01-11T03:21:17.774Z,6.40
2023-01-11T03:23:50.298Z,6.40
2023-01-11T03:26:20.908Z,6.50
2023-01-11T03:28:53.831Z,6.50
2023-01-11T03:31:25.804Z,6.50
2023-01-11T03:33:57.270Z,6.50
2023-01-11T03:36:27.502Z,6.60
2023-01-11T03:38:57.429Z,6.60
2023-01-11T03:41:26.997Z,6.60
2023-01-11T03:43:56.307Z,6.60
2023-01-11T03:46:28.624Z,6.60
2023-01-11T03:48:58.515Z,6.70
2023-01-11T03:51:27.932Z,6.60
2023-01-11T03:53:58.595Z,6.70
2023-01-11T03:56:30.287Z,6.70
2023-01-11T03:58:58.004Z,6.70
2023-01-11T04:01:27.264Z,6.70
2023-01-11T04:03:54.973Z,6.70
2023-01-11T04:06:23.181Z,6.70
2023-01-11T04:08:50.868Z,6.70
2023-01-11T04:11:18.519Z,6.70
2023-01-11T04:13:46.263Z,6.70
2023-01-11T04:16:13.936Z,6.70
2023-01-11T04:18:42.913Z,6.70
2023-01-11T04:21:10.577Z,6.80
2023-01-11T04:23:38.486Z,6.80
2023-01-11T04:26:06.104Z,6.80
2023-01-11T04:28:34.530Z,6.80
2023-01-11T04:31:02.212Z,6.80
2023-01-11T04:33:29.870Z,6.80
2023-01-11T04:35:58.827Z,6.80
2023-01-11T04:38:27.208Z,6.90
2023-01-11T04:41:14.870Z,6.80
2023-01-11T04:43:41.566Z,6.90
2023-01-11T04:46:10.845Z,6.90
2023-01-11T04:48:39.461Z,7.00
2023-01-11T04:51:08.975Z,6.90
2023-01-11T04:53:36.986Z,7.00
2023-01-11T04:56:05.185Z,7.00
2023-01-11T04:58:33.566Z,7.00
2023-01-11T05:01:01.255Z,7.00
2023-01-11T05:03:28.869Z,7.10
2023-01-11T05:05:57.086Z,7.00
2023-01-11T05:08:26.150Z,7.10
2023-01-11T05:10:54.366Z,7.10
2023-01-11T05:13:22.480Z,7.10
2023-01-11T05:15:50.168Z,7.10
2023-01-11T05:18:17.806Z,7.10
2023-01-11T05:20:49.385Z,7.10
2023-01-11T05:23:16.991Z,7.10
2023-01-11T05:25:46.688Z,7.10
2023-01-11T05:28:14.330Z,7.20
2023-01-11T05:30:41.926Z,7.10
2023-01-11T05:33:09.546Z,7.10
2023-01-11T05:35:37.171Z,7.10
2023-01-11T05:38:04.782Z,7.20
2023-01-11T05:40:32.400Z,7.20
2023-01-11T05:43:01.376Z,7.20
2023-01-11T05:45:32.256Z,7.30
2023-01-11T05:48:00.239Z,7.30
2023-01-11T05:50:28.186Z,7.30
2023-01-11T05:52:55.807Z,7.40
2023-01-11T05:55:23.501Z,7.30
2023-01-11T05:57:51.872Z,7.30
2023-01-11T06:00:21.424Z,7.30
2023-01-11T06:02:49.128Z,7.40
2023-01-11T06:05:16.887Z,7.40
2023-01-11T06:07:44.498Z,7.40
2023-01-11T06:10:12.146Z,7.40
2023-01-11T06:12:40.045Z,7.40
2023-01-11T06:15:08.215Z,7.40
2023-01-11T06:17:37.237Z,7.40
2023-01-11T06:20:05.348Z,7.50
2023-01-11T06:22:32.991Z,7.50
2023-01-11T06:25:00.601Z,7.50
2023-01-11T06:27:28.230Z,7.50
2023-01-11T06:29:55.866Z,7.50
2023-01-11T06:32:23.484Z,7.50
2023-01-11T06:34:52.507Z,7.40
2023-01-11T06:37:20.123Z,7.50
2023-01-11T06:39:47.790Z,7.50
2023-01-11T06:42:15.898Z,7.50
2023-01-11T06:44:43.542Z,7.60
2023-01-11T06:47:11.201Z,7.60
2023-01-11T06:49:38.897Z,7.60
2023-01-11T06:52:07.879Z,7.60
2023-01-11T06:54:35.528Z,7.50
2023-01-11T06:57:03.213Z,7.60
2023-01-11T06:59:31.098Z,7.50
2023-01-11T07:01:59.420Z,7.60
2023-01-11T07:04:27.084Z,7.60
2023-01-11T07:06:55.527Z,7.70
2023-01-11T07:09:24.512Z,7.60
2023-01-11T07:11:52.172Z,7.60
2023-01-11T07:14:19.911Z,7.60
2023-01-11T07:16:47.630Z,7.60
2023-01-11T07:19:15.519Z,7.70
2023-01-11T07:21:43.168Z,7.70
2023-01-11T07:24:10.878Z,7.60
2023-01-11T07:26:41.373Z,7.60
2023-01-11T07:29:09.186Z,7.70
2023-01-11T07:31:36.904Z,7.70
2023-01-11T07:34:04.828Z,7.70
2023-01-11T07:36:36.702Z,7.70
2023-01-11T07:39:04.391Z,7.70
2023-01-11T07:41:49.626Z,7.70
2023-01-11T07:44:18.618Z,7.80
2023-01-11T07:46:46.397Z,7.80
2023-01-11T07:49:14.051Z,7.80
2023-01-11T07:51:41.724Z,7.80
2023-01-11T07:54:09.427Z,7.90
2023-01-11T07:56:37.101Z,7.90
2023-01-11T07:59:04.816Z,7.90
2023-01-11T08:01:33.782Z,7.90
2023-01-11T08:04:01.450Z,8.00
2023-01-11T08:06:29.127Z,8.00
2023-01-11T08:08:56.758Z,8.00
2023-01-11T08:11:42.111Z,8.10
2023-01-11T08:14:28.757Z,8.00
2023-01-11T08:16:57.765Z,8.10
2023-01-11T08:19:25.494Z,8.10
2023-01-11T08:21:53.165Z,8.00
2023-01-11T08:24:21.303Z,8.00
2023-01-11T08:26:48.938Z,8.00
2023-01-11T08:29:16.625Z,8.10
2023-01-11T08:31:44.583Z,8.10
2023-01-11T08:34:13.673Z,8.10
2023-01-11T08:36:41.350Z,8.10
2023-01-11T08:39:09.063Z,8.10
2023-01-11T08:41:38.242Z,8.10
2023-01-11T08:44:06.266Z,8.10
2023-01-11T08:46:34.290Z,8.20
2023-01-11T08:49:02.032Z,8.10
2023-01-11T08:51:31.478Z,8.10
2023-01-11T08:53:59.248Z,8.10
2023-01-11T08:56:26.947Z,8.10
2023-01-11T08:58:54.608Z,8.10
2023-01-11T09:01:22.478Z,8.20
2023-01-11T09:03:50.191Z,8.20
2023-01-11T09:06:18.832Z,8.20
2023-01-11T09:08:48.349Z,8.20
2023-01-11T09:11:29.969Z,8.20
2023-01-11T09:13:57.622Z,8.20
2023-01-11T09:16:25.417Z,8.20
2023-01-11T09:18:53.093Z,8.20
2023-01-11T09:21:20.785Z,8.20
2023-01-11T09:23:49.781Z,8.20
2023-01-11T09:26:17.420Z,8.30
2023-01-11T09:28:45.190Z,8.20
2023-01-11T09:31:12.849Z,8.20
2023-01-11T09:33:40.499Z,8.30
2023-01-11T09:36:08.536Z,8.20
2023-01-11T09:38:39.059Z,8.30
2023-01-11T09:41:17.965Z,8.30
2023-01-11T09:43:50.958Z,8.30
2023-01-11T09:46:19.892Z,8.30
2023-01-11T09:48:49.070Z,8.30
2023-01-11T09:51:19.098Z,8.30
2023-01-11T09:53:52.055Z,8.30
2023-01-11T09:56:25.211Z,8.40
2023-01-11T09:58:57.721Z,8.40
2023-01-11T10:01:31.368Z,8.40
2023-01-11T10:04:26.499Z,8.40
2023-01-11T10:07:02.555Z,8.40
2023-01-11T10:18:31.573Z,8.50
2023-01-11T10:18:42.885Z,8.50
2023-01-11T10:21:10.989Z,8.50
2023-01-11T10:23:44.658Z,8.50
2023-01-11T10:26:23.209Z,8.50
2023-01-11T10:29:07.500Z,8.50
2023-01-11T10:31:49.244Z,8.50
2023-01-11T10:34:38.444Z,8.60
2023-01-11T10:37:26.724Z,8.60
2023-01-11T10:40:18.360Z,8.60
2023-01-11T10:42:48.456Z,8.60
2023-01-11T10:45:19.455Z,8.70
2023-01-11T10:47:55.589Z,8.70
2023-01-11T10:50:27.835Z,8.70
2023-01-11T10:52:58.817Z,8.70
2023-01-11T10:58:09.345Z,8.80
2023-01-11T11:00:42.771Z,8.90
2023-01-11T11:03:18.582Z,8.90
2023-01-11T11:05:50.380Z,9.00
2023-01-11T11:08:22.489Z,9.00
2023-01-11T11:10:54.447Z,9.10
2023-01-11T11:13:24.429Z,9.20
2023-01-11T11:15:57.071Z,9.10
2023-01-11T11:18:24.897Z,9.30
2023-01-11T11:20:52.616Z,9.30
2023-01-11T11:23:22.606Z,9.30
2023-01-11T11:25:52.404Z,9.40
2023-01-11T11:28:26.989Z,9.40
2023-01-11T11:30:57.319Z,9.50
2023-01-11T11:33:25.886Z,9.60
2023-01-11T11:35:57.277Z,9.70
2023-01-11T11:38:26.092Z,9.80
2023-01-11T11:41:05.627Z,9.80
2023-01-11T11:43:33.882Z,9.90
2023-01-11T11:46:04.058Z,9.90
2023-01-11T11:48:32.525Z,9.90
2023-01-11T11:51:01.248Z,9.90
2023-01-11T11:53:38.012Z,9.80
2023-01-11T11:56:15.580Z,9.80
2023-01-11T11:58:43.808Z,9.90
2023-01-11T12:01:22.866Z,10.00
2023-01-11T12:03:50.840Z,10.10
2023-01-11T12:06:22.445Z,10.20
2023-01-11T12:08:50.140Z,10.20
2023-01-11T12:11:20.148Z,10.30
2023-01-11T12:13:59.185Z,10.30
2023-01-11T12:16:36.113Z,10.40
2023-01-11T12:19:03.877Z,10.40
2023-01-11T12:21:31.577Z,10.40
2023-01-11T12:24:17.091Z,10.40
2023-01-11T12:26:49.694Z,10.50
2023-01-11T12:29:29.445Z,10.50
2023-01-11T12:32:05.834Z,10.50
2023-01-11T12:34:43.845Z,10.50
2023-01-11T12:37:16.495Z,10.50
2023-01-11T12:39:47.145Z,10.50
2023-01-11T12:42:30.197Z,10.50
2023-01-11T12:45:03.841Z,10.50
2023-01-11T12:47:46.392Z,10.60
2023-01-11T12:50:18.510Z,10.60
2023-01-11T12:52:53.585Z,10.60
2023-01-11T12:55:30.832Z,10.60
2023-01-11T12:58:01.744Z,10.60
2023-01-11T13:00:47.370Z,10.50
2023-01-11T13:03:34.180Z,10.50
2023-01-11T13:06:07.656Z,10.50
2023-01-11T13:08:40.688Z,10.50
2023-01-11T13:11:12.123Z,10.50
2023-01-11T13:13:46.458Z,10.40
2023-01-11T13:16:17.799Z,10.50
2023-01-11T13:18:48.191Z,10.50
2023-01-11T13:21:24.719Z,10.40
2023-01-11T13:23:54.691Z,10.40
2023-01-11T13:26:23.869Z,10.40
2023-01-11T13:28:55.660Z,10.40
2023-01-11T13:31:24.003Z,10.50
2023-01-11T13:33:54.731Z,10.40
2023-01-11T13:36:26.572Z,10.40
2023-01-11T13:38:56.277Z,10.40
2023-01-11T13:41:26.404Z,10.40
2023-01-11T13:43:56.288Z,10.40
2023-01-11T13:46:35.893Z,10.40
2023-01-11T13:49:07.456Z,10.40
2023-01-11T13:51:40.118Z,10.40
2023-01-11T13:54:09.724Z,10.40
2023-01-11T13:56:40.620Z,10.40
2023-01-11T13:59:12.334Z,10.40
2023-01-11T14:01:43.495Z,10.40
2023-01-11T14:04:14.603Z,10.40
2023-01-11T14:06:53.432Z,10.40
2023-01-11T14:09:32.897Z,10.40
2023-01-11T14:12:03.749Z,10.40
2023-01-11T14:14:40.097Z,10.30
2023-01-11T14:17:18.567Z,10.30
2023-01-11T14:19:49.869Z,10.30
2023-01-11T14:22:22.388Z,10.30
2023-01-11T14:24:54.674Z,10.20
2023-01-11T14:27:45.625Z,10.20
2023-01-11T14:30:20.335Z,10.20
2023-01-11T14:33:04.549Z,10.20
2023-01-11T14:35:40.369Z,10.10
2023-01-11T14:38:19.532Z,10.00
2023-01-11T14:40:52.606Z,10.00
2023-01-11T14:43:35.313Z,10.00
2023-01-11T14:46:09.576Z,10.00
2023-01-11T14:48:42.649Z,9.90
2023-01-11T14:51:17.320Z,9.90
2023-01-11T14:53:48.248Z,9.90
2023-01-11T14:56:34.712Z,9.80
2023-01-11T14:59:03.142Z,9.90
2023-01-11T15:01:30.832Z,9.80
2023-01-11T15:03:58.488Z,9.80
2023-01-11T15:06:31.590Z,9.80
2023-01-11T15:09:00.758Z,9.70
2023-01-11T15:11:37.930Z,9.70
2023-01-11T15:14:08.135Z,9.60
2023-01-11T15:16:53.785Z,9.60
2023-01-11T15:19:26.121Z,9.60
2023-01-11T15:21:55.709Z,9.60
2023-01-11T15:24:26.405Z,9.60
2023-01-11T15:26:54.820Z,9.50
2023-01-11T15:29:23.843Z,9.60
2023-01-11T15:32:04.444Z,9.50
2023-01-11T15:34:41.085Z,9.40
2023-01-11T15:37:27.466Z,9.40
2023-01-11T15:39:58.752Z,9.40
2023-01-11T15:42:42.249Z,9.40
2023-01-11T15:45:25.074Z,9.40
2023-01-11T15:48:11.151Z,9.30
2023-01-11T15:50:57.523Z,9.30
2023-01-11T15:53:33.318Z,9.20
2023-01-11T15:56:17.267Z,9.20
2023-01-11T15:58:56.679Z,9.10
2023-01-11T16:01:25.548Z,9.10
2023-01-11T16:03:57.452Z,9.10
2023-01-11T16:06:34.326Z,9.00
2023-01-11T16:09:08.409Z,9.00
2023-01-11T16:11:42.215Z,9.00
2023-01-11T16:14:23.098Z,9.00
2023-01-11T16:16:52.556Z,8.90
2023-01-11T16:19:21.608Z,8.90
2023-01-11T16:21:50.832Z,8.80
2023-01-11T16:24:20.430Z,8.80
2023-01-11T16:26:53.710Z,8.80
2023-01-11T16:29:22.348Z,8.70
2023-01-11T16:31:57.489Z,8.70
2023-01-11T16:34:25.671Z,8.60
2023-01-11T16:36:53.378Z,8.50
2023-01-11T16:39:22.647Z,8.40
2023-01-11T16:41:55.713Z,8.50
2023-01-11T16:44:28.011Z,8.40
2023-01-11T16:47:13.599Z,8.40
2023-01-11T16:49:42.929Z,8.40
2023-01-11T16:52:31.229Z,8.40
2023-01-11T16:55:01.019Z,8.40
2023-01-11T16:57:31.809Z,8.40
2023-01-11T17:00:00.886Z,8.30
2023-01-11T17:02:31.763Z,8.30
2023-01-11T17:04:59.512Z,8.20
2023-01-11T17:07:28.213Z,8.10
2023-01-11T17:10:15.207Z,8.20
2023-01-11T17:12:45.893Z,8.10
2023-01-11T17:15:23.058Z,8.10
2023-01-11T17:17:51.117Z,8.10
2023-01-11T17:20:21.337Z,8.10
2023-01-11T17:22:53.567Z,8.10
2023-01-11T17:25:24.791Z,7.90
2023-01-11T17:27:57.720Z,7.90
2023-01-11T17:30:26.408Z,7.90
2023-01-11T17:32:55.274Z,7.80
2023-01-11T17:35:24.156Z,7.80
2023-01-11T17:37:53.280Z,7.80
2023-01-11T17:40:22.830Z,7.70
2023-01-11T17:43:08.629Z,7.70
2023-01-11T17:45:38.519Z,7.60
2023-01-11T17:48:12.444Z,7.50
2023-01-11T17:50:41.572Z,7.30
2023-01-11T17:53:15.991Z,7.20
2023-01-11T17:55:50.558Z,7.10
2023-01-11T17:58:22.923Z,7.00
2023-01-11T18:01:09.628Z,6.90
2023-01-11T18:03:40.538Z,6.80
2023-01-11T18:06:11.652Z,6.80
2023-01-11T18:08:39.411Z,6.70
2023-01-11T18:11:07.166Z,6.70
2023-01-11T18:13:35.050Z,6.60
2023-01-11T18:16:02.819Z,6.60
2023-01-11T18:18:42.387Z,6.50
2023-01-11T18:21:28.700Z,6.60
2023-01-11T18:24:11.266Z,6.60
2023-01-11T18:26:39.469Z,6.60
2023-01-11T18:29:07.395Z,6.60
2023-01-11T18:31:35.076Z,6.70
2023-01-11T18:34:06.547Z,6.60
2023-01-11T18:36:34.276Z,6.70
2023-01-11T18:39:01.981Z,6.70
2023-01-11T18:41:58.566Z,6.70
2023-01-11T18:44:28.355Z,6.70
2023-01-11T18:46:55.991Z,6.70
2023-01-11T18:49:24.986Z,6.60
2023-01-11T18:51:52.671Z,6.60
2023-01-11T18:54:20.360Z,6.70
2023-01-11T18:56:48.042Z,6.60
2023-01-11T18:59:15.764Z,6.60
2023-01-11T19:01:56.509Z,6.60
2023-01-11T19:04:33.196Z,6.60
2023-01-11T19:07:00.876Z,6.60
2023-01-11T19:09:28.835Z,6.60
2023-01-11T19:11:56.517Z,6.60
2023-01-11T19:14:24.180Z,6.60
2023-01-11T19:16:51.936Z,6.60
2023-01-11T19:19:19.628Z,6.60
2023-01-11T19:21:48.645Z,6.50
2023-01-11T19:24:16.307Z,6.50
2023-01-11T19:26:44.043Z,6.50
2023-01-11T19:29:16.367Z,6.50
2023-01-11T19:31:44.491Z,6.50
2023-01-11T19:34:12.648Z,6.50
2023-01-11T19:36:40.729Z,6.50
2023-01-11T19:39:09.759Z,6.60
2023-01-11T19:41:51.877Z,6.60
2023-01-11T19:44:19.549Z,6.50
2023-01-11T19:46:50.407Z,6.50
2023-01-11T19:49:20.673Z,6.50
2023-01-11T19:51:48.359Z,6.40
2023-01-11T19:54:17.752Z,6.40
2023-01-11T19:56:45.557Z,6.40
2023-01-11T19:59:13.332Z,6.40
2023-01-11T20:01:41.352Z,6.40
2023-01-11T20:04:10.797Z,6.40
2023-01-11T20:06:39.806Z,6.40
2023-01-11T20:09:09.174Z,6.40
2023-01-11T20:11:38.373Z,6.40
2023-01-11T20:14:06.040Z,6.40
2023-01-11T20:16:33.707Z,6.40
2023-01-11T20:19:01.501Z,6.50
2023-01-11T20:21:31.452Z,6.50
2023-01-11T20:23:59.127Z,6.50
2023-01-11T20:26:28.068Z,6.50
2023-01-11T20:28:57.384Z,6.50
2023-01-11T20:31:27.935Z,6.60
2023-01-11T20:33:56.033Z,6.50
2023-01-11T20:36:24.364Z,6.60
2023-01-11T20:38:52.670Z,6.50
2023-01-11T20:41:35.453Z,6.50
2023-01-11T20:44:05.009Z,6.50
2023-01-11T20:46:33.092Z,6.50
2023-01-11T20:49:01.379Z,6.50
2023-01-11T20:51:29.127Z,6.50
2023-01-11T20:53:56.785Z,6.50
2023-01-11T20:56:24.532Z,6.40
2023-01-11T20:58:52.399Z,6.40
2023-01-11T21:01:23.654Z,6.40
2023-01-11T21:03:51.368Z,6.30
2023-01-11T21:06:19.150Z,6.40
2023-01-11T21:08:46.804Z,6.30
2023-01-11T21:11:15.404Z,6.30
2023-01-11T21:13:43.129Z,6.30
2023-01-11T21:16:12.122Z,6.30
2023-01-11T21:18:43.481Z,6.20
2023-01-11T21:21:12.815Z,6.20
2023-01-11T21:23:40.457Z,6.20
2023-01-11T21:26:11.656Z,6.20
2023-01-11T21:28:39.694Z,6.10
2023-01-11T21:31:07.489Z,6.10
2023-01-11T21:33:36.291Z,6.00
2023-01-11T21:36:06.845Z,6.00
2023-01-11T21:38:35.069Z,5.90
2023-01-11T21:41:06.176Z,5.90
2023-01-11T21:43:33.847Z,5.80
2023-01-11T21:46:01.866Z,5.80
2023-01-11T21:48:29.573Z,5.80
2023-01-11T21:50:57.226Z,5.90
2023-01-11T21:53:29.654Z,5.90
2023-01-11T21:55:57.377Z,5.90
2023-01-11T21:58:25.015Z,6.00
2023-01-11T22:00:52.880Z,6.00
2023-01-11T22:03:20.545Z,6.10
2023-01-11T22:05:48.190Z,6.20
2023-01-11T22:08:15.926Z,6.30
2023-01-11T22:10:45.024Z,6.30
2023-01-11T22:13:13.640Z,6.30
2023-01-11T22:15:41.321Z,6.30
2023-01-11T22:18:09.054Z,6.30
2023-01-11T22:20:36.704Z,6.30
2023-01-11T22:23:04.592Z,6.40
2023-01-11T22:25:32.247Z,6.30
2023-01-11T22:28:01.235Z,6.40
2023-01-11T22:30:28.938Z,6.40
2023-01-11T22:32:56.599Z,6.40
2023-01-11T22:35:24.297Z,6.40
2023-01-11T22:37:51.959Z,6.50
2023-01-11T22:40:19.684Z,6.60
2023-01-11T22:42:47.384Z,6.60
2023-01-11T22:45:16.457Z,6.60
2023-01-11T22:47:44.112Z,6.70
2023-01-11T22:50:11.756Z,6.70
2023-01-11T22:52:39.891Z,6.60
2023-01-11T22:55:08.163Z,6.70
2023-01-11T22:57:35.877Z,6.70
2023-01-11T23:00:04.574Z,6.70
2023-01-11T23:02:33.592Z,6.80
2023-01-11T23:05:01.272Z,6.80
2023-01-11T23:07:29.202Z,6.90
2023-01-11T23:09:56.838Z,6.90
2023-01-11T23:12:41.970Z,6.90
2023-01-11T23:15:10.382Z,7.00
2023-01-11T23:17:39.367Z,7.00
2023-01-11T23:20:07.304Z,7.10
2023-01-11T23:22:34.907Z,7.10
2023-01-11T23:25:03.460Z,7.20
2023-01-11T23:27:31.144Z,7.20
2023-01-11T23:29:58.806Z,7.20
2023-01-11T23:32:27.495Z,7.30
2023-01-11T23:34:56.538Z,7.30
2023-01-11T23:37:24.165Z,7.30
2023-01-11T23:39:51.795Z,7.40
2023-01-11T23:42:27.274Z,7.40
2023-01-11T23:44:55.103Z,7.40
2023-01-11T23:47:21.990Z,7.40
2023-01-11T23:49:50.428Z,7.40
2023-01-11T23:52:20.284Z,7.40
2023-01-11T23:54:48.057Z,7.40
2023-01-11T23:57:16.284Z,7.40
2023-01-11T23:59:44.364Z,7.50
